createdAt,value
2022-09-07T00:00:52.004Z,2.90
2022-09-07T00:01:52.010Z,3.20
2022-09-07T00:02:52.076Z,4.20
2022-09-07T00:03:52.123Z,3.80
2022-09-07T00:04:52.014Z,2.90
2022-09-07T00:05:52.018Z,3.20
2022-09-07T00:06:52.020Z,3.20
2022-09-07T00:07:52.025Z,3.40
2022-09-07T00:08:52.024Z,5.00
2022-09-07T00:09:52.026Z,3.50
2022-09-07T00:10:52.026Z,4.80
2022-09-07T00:11:52.028Z,4.50
2022-09-07T00:12:52.031Z,3.20
2022-09-07T00:13:52.036Z,3.60
2022-09-07T00:14:52.437Z,3.20
2022-09-07T00:15:52.147Z,4.20
2022-09-07T00:16:52.041Z,3.30
2022-09-07T00:17:52.046Z,3.80
2022-09-07T00:18:52.048Z,2.50
2022-09-07T00:19:52.051Z,3.40
2022-09-07T00:20:52.049Z,2.40
2022-09-07T00:21:52.054Z,3.80
2022-09-07T00:22:52.054Z,5.40
2022-09-07T00:23:52.056Z,3.40
2022-09-07T00:24:52.059Z,3.80
2022-09-07T00:25:54.060Z,4.00
2022-09-07T00:26:52.064Z,3.80
2022-09-07T00:27:52.066Z,2.30
2022-09-07T00:28:52.066Z,2.90
2022-09-07T00:29:52.071Z,3.00
2022-09-07T00:30:52.085Z,3.20
2022-09-07T00:31:52.177Z,4.10
2022-09-07T00:32:52.079Z,4.20
2022-09-07T00:33:52.085Z,4.50
2022-09-07T00:34:52.081Z,3.20
2022-09-07T00:35:52.085Z,3.90
2022-09-07T00:36:52.089Z,3.20
2022-09-07T00:37:52.088Z,4.00
2022-09-07T00:38:52.092Z,3.80
2022-09-07T00:39:52.165Z,4.60
2022-09-07T00:40:52.097Z,3.10
2022-09-07T00:41:52.099Z,3.30
2022-09-07T00:42:52.104Z,4.60
2022-09-07T00:43:52.104Z,3.50
2022-09-07T00:44:52.105Z,4.60
2022-09-07T00:45:52.108Z,2.60
2022-09-07T00:46:52.191Z,4.30
2022-09-07T00:47:52.112Z,3.50
2022-09-07T00:48:52.114Z,2.70
2022-09-07T00:49:52.116Z,4.60
2022-09-07T00:50:52.121Z,4.30
2022-09-07T00:51:52.122Z,4.50
2022-09-07T00:52:52.126Z,3.90
2022-09-07T00:53:52.128Z,4.30
2022-09-07T00:54:52.133Z,3.70
2022-09-07T00:55:52.147Z,2.50
2022-09-07T00:56:52.143Z,3.10
2022-09-07T00:57:52.140Z,3.30
2022-09-07T00:58:52.144Z,2.80
2022-09-07T00:59:52.140Z,3.60
2022-09-07T01:00:52.160Z,2.70
2022-09-07T01:01:52.280Z,2.70
2022-09-07T01:02:52.336Z,2.60
2022-09-07T01:03:52.150Z,3.40
2022-09-07T01:04:52.177Z,2.20
2022-09-07T01:05:52.156Z,2.50
2022-09-07T01:06:52.163Z,3.70
2022-09-07T01:07:52.159Z,3.20
2022-09-07T01:08:52.165Z,3.60
2022-09-07T01:09:52.163Z,3.10
2022-09-07T01:10:52.172Z,2.80
2022-09-07T01:11:52.168Z,3.20
2022-09-07T01:12:52.173Z,2.60
2022-09-07T01:13:52.173Z,2.30
2022-09-07T01:14:52.376Z,3.10
2022-09-07T01:15:52.205Z,2.80
2022-09-07T01:16:52.182Z,2.80
2022-09-07T01:17:52.193Z,2.70
2022-09-07T01:18:52.188Z,3.80
2022-09-07T01:19:52.189Z,3.90
2022-09-07T01:20:52.191Z,2.30
2022-09-07T01:21:52.193Z,2.80
2022-09-07T01:22:52.197Z,2.30
2022-09-07T01:23:52.196Z,2.00
2022-09-07T01:24:52.201Z,2.70
2022-09-07T01:25:52.203Z,2.30
2022-09-07T01:26:52.208Z,1.80
2022-09-07T01:27:52.204Z,2.50
2022-09-07T01:28:52.209Z,2.20
2022-09-07T01:29:52.262Z,3.10
2022-09-07T01:30:52.262Z,2.80
2022-09-07T01:31:52.221Z,2.70
2022-09-07T01:32:52.220Z,2.30
2022-09-07T01:33:52.219Z,2.30
2022-09-07T01:34:52.224Z,2.20
2022-09-07T01:35:52.222Z,2.00
2022-09-07T01:36:52.237Z,2.50
2022-09-07T01:37:56.791Z,1.60
2022-09-07T01:38:52.234Z,1.90
2022-09-07T01:39:52.290Z,1.70
2022-09-07T01:40:52.239Z,2.10
2022-09-07T01:41:52.237Z,1.90
2022-09-07T01:42:52.246Z,1.50
2022-09-07T01:43:52.243Z,1.90
2022-09-07T01:44:52.244Z,1.70
2022-09-07T01:45:52.250Z,1.40
2022-09-07T01:46:52.252Z,1.80
2022-09-07T01:47:52.252Z,2.10
2022-09-07T01:48:52.256Z,2.20
2022-09-07T01:49:52.256Z,1.30
2022-09-07T01:50:52.260Z,1.70
2022-09-07T01:51:52.258Z,1.90
2022-09-07T01:52:52.267Z,2.50
2022-09-07T01:53:52.264Z,2.80
2022-09-07T01:54:52.269Z,2.50
2022-09-07T01:55:52.269Z,1.60
2022-09-07T01:56:52.272Z,1.30
2022-09-07T01:57:52.275Z,1.50
2022-09-07T01:58:52.278Z,2.50
2022-09-07T01:59:52.280Z,1.40
2022-09-07T02:00:52.281Z,1.50
2022-09-07T02:01:52.365Z,1.90
2022-09-07T02:02:52.430Z,1.70
2022-09-07T02:03:52.285Z,1.60
2022-09-07T02:04:52.292Z,2.50
2022-09-07T02:05:52.292Z,2.20
2022-09-07T02:06:52.296Z,2.50
2022-09-07T02:07:52.297Z,2.50
2022-09-07T02:08:52.299Z,2.30
2022-09-07T02:09:52.303Z,2.20
2022-09-07T02:10:52.309Z,2.30
2022-09-07T02:11:52.308Z,2.10
2022-09-07T02:12:52.308Z,1.60
2022-09-07T02:13:52.309Z,1.50
2022-09-07T02:14:52.932Z,2.00
2022-09-07T02:15:52.349Z,1.50
2022-09-07T02:16:52.317Z,1.80
2022-09-07T02:17:52.318Z,2.60
2022-09-07T02:18:52.323Z,2.60
2022-09-07T02:19:52.322Z,1.40
2022-09-07T02:20:52.327Z,2.00
2022-09-07T02:21:52.327Z,1.90
2022-09-07T02:22:52.330Z,2.40
2022-09-07T02:23:52.335Z,2.00
2022-09-07T02:24:52.337Z,2.20
2022-09-07T02:25:52.336Z,2.00
2022-09-07T02:26:52.341Z,1.90
2022-09-07T02:27:52.339Z,2.10
2022-09-07T02:28:52.345Z,1.70
2022-09-07T02:29:52.345Z,2.00
2022-09-07T02:30:52.377Z,2.20
2022-09-07T02:31:52.357Z,2.20
2022-09-07T02:32:52.357Z,1.80
2022-09-07T02:33:52.353Z,2.30
2022-09-07T02:34:52.358Z,1.60
2022-09-07T02:35:52.360Z,1.80
2022-09-07T02:36:52.364Z,2.00
2022-09-07T02:37:52.365Z,2.10
2022-09-07T02:38:52.366Z,1.90
2022-09-07T02:39:52.438Z,1.60
2022-09-07T02:40:52.371Z,2.20
2022-09-07T02:41:52.371Z,1.80
2022-09-07T02:42:52.378Z,2.90
2022-09-07T02:43:52.376Z,1.60
2022-09-07T02:44:52.380Z,2.00
2022-09-07T02:45:52.443Z,1.80
2022-09-07T02:46:52.387Z,1.50
2022-09-07T02:47:52.388Z,1.80
2022-09-07T02:48:52.388Z,1.70
2022-09-07T02:49:52.393Z,2.20
2022-09-07T02:50:52.396Z,1.80
2022-09-07T02:51:52.394Z,3.00
2022-09-07T02:52:52.403Z,2.10
2022-09-07T02:53:52.399Z,1.40
2022-09-07T02:54:52.403Z,2.00
2022-09-07T02:55:52.403Z,2.00
2022-09-07T02:56:52.408Z,2.40
2022-09-07T02:57:52.407Z,1.80
2022-09-07T02:58:52.412Z,1.80
2022-09-07T02:59:52.414Z,2.00
2022-09-07T03:00:52.417Z,2.60
2022-09-07T03:01:52.447Z,2.20
2022-09-07T03:02:52.493Z,2.20
2022-09-07T03:03:52.421Z,2.60
2022-09-07T03:04:52.427Z,2.00
2022-09-07T03:05:52.426Z,2.40
2022-09-07T03:06:52.443Z,2.40
2022-09-07T03:07:52.437Z,1.70
2022-09-07T03:08:52.436Z,1.80
2022-09-07T03:09:52.439Z,2.60
2022-09-07T03:10:52.440Z,1.80
2022-09-07T03:11:52.442Z,2.40
2022-09-07T03:12:52.443Z,1.70
2022-09-07T03:13:52.444Z,2.30
2022-09-07T03:14:52.598Z,2.70
2022-09-07T03:15:55.703Z,2.50
2022-09-07T03:16:52.451Z,1.90
2022-09-07T03:17:52.454Z,1.90
2022-09-07T03:18:52.461Z,2.30
2022-09-07T03:19:52.456Z,1.60
2022-09-07T03:20:52.461Z,2.30
2022-09-07T03:21:52.462Z,2.20
2022-09-07T03:22:52.472Z,2.90
2022-09-07T03:23:52.471Z,2.10
2022-09-07T03:24:52.470Z,2.20
2022-09-07T03:25:52.472Z,2.40
2022-09-07T03:26:52.474Z,1.90
2022-09-07T03:27:52.503Z,2.50
2022-09-07T03:28:52.484Z,2.20
2022-09-07T03:29:52.482Z,2.30
2022-09-07T03:30:52.545Z,3.50
2022-09-07T03:31:52.483Z,2.90
2022-09-07T03:32:52.492Z,2.90
2022-09-07T03:33:52.494Z,2.80
2022-09-07T03:34:52.504Z,2.90
2022-09-07T03:35:52.495Z,3.50
2022-09-07T03:36:52.495Z,3.00
2022-09-07T03:37:52.500Z,4.00
2022-09-07T03:38:52.505Z,3.60
2022-09-07T03:39:52.528Z,3.90
2022-09-07T03:40:52.505Z,3.20
2022-09-07T03:41:52.505Z,3.20
2022-09-07T03:42:52.513Z,3.10
2022-09-07T03:43:52.509Z,3.20
2022-09-07T03:44:52.519Z,3.30
2022-09-07T03:45:52.542Z,4.20
2022-09-07T03:46:52.517Z,3.20
2022-09-07T03:47:52.527Z,3.60
2022-09-07T03:48:52.524Z,3.10
2022-09-07T03:49:52.521Z,3.10
2022-09-07T03:50:52.527Z,3.20
2022-09-07T03:51:52.528Z,3.40
2022-09-07T03:52:52.532Z,3.40
2022-09-07T03:53:52.541Z,3.30
2022-09-07T03:54:52.538Z,3.30
2022-09-07T03:55:52.541Z,2.70
2022-09-07T03:56:52.539Z,3.50
2022-09-07T03:57:52.538Z,3.30
2022-09-07T03:58:52.542Z,3.20
2022-09-07T03:59:52.542Z,3.10
2022-09-07T04:00:52.547Z,2.90
2022-09-07T04:01:52.568Z,2.70
2022-09-07T04:02:52.635Z,3.10
2022-09-07T04:03:52.555Z,3.60
2022-09-07T04:04:52.555Z,3.20
2022-09-07T04:05:52.554Z,3.40
2022-09-07T04:06:52.560Z,3.50
2022-09-07T04:07:52.569Z,3.30
2022-09-07T04:08:52.564Z,4.70
2022-09-07T04:09:52.564Z,4.00
2022-09-07T04:10:52.568Z,3.10
2022-09-07T04:11:52.583Z,4.20
2022-09-07T04:12:52.571Z,3.40
2022-09-07T04:13:52.572Z,3.60
2022-09-07T04:14:52.826Z,4.40
2022-09-07T04:15:53.990Z,4.20
2022-09-07T04:16:52.633Z,4.60
2022-09-07T04:17:52.582Z,4.20
2022-09-07T04:18:52.592Z,5.20
2022-09-07T04:19:52.589Z,4.70
2022-09-07T04:20:52.586Z,5.10
2022-09-07T04:21:52.588Z,4.10
2022-09-07T04:22:54.413Z,5.20
2022-09-07T04:23:52.594Z,4.60
2022-09-07T04:24:52.598Z,4.50
2022-09-07T04:25:52.602Z,4.90
2022-09-07T04:26:52.603Z,5.10
2022-09-07T04:27:52.601Z,4.60
2022-09-07T04:28:52.607Z,4.50
2022-09-07T04:29:52.607Z,5.10
2022-09-07T04:30:52.666Z,4.40
2022-09-07T04:31:52.617Z,5.70
2022-09-07T04:32:52.613Z,4.60
2022-09-07T04:33:52.612Z,4.30
2022-09-07T04:34:52.618Z,4.90
2022-09-07T04:35:52.615Z,4.30
2022-09-07T04:36:52.624Z,4.40
2022-09-07T04:37:52.619Z,4.50
2022-09-07T04:38:52.624Z,5.20
2022-09-07T04:39:52.688Z,4.40
2022-09-07T04:40:52.626Z,5.30
2022-09-07T04:41:52.628Z,4.20
2022-09-07T04:42:52.639Z,5.20
2022-09-07T04:43:52.631Z,4.60
2022-09-07T04:44:52.638Z,4.50
2022-09-07T04:45:52.655Z,4.90
2022-09-07T04:46:52.642Z,5.00
2022-09-07T04:47:52.648Z,4.40
2022-09-07T04:48:52.645Z,5.00
2022-09-07T04:49:52.670Z,4.60
2022-09-07T04:50:52.651Z,4.40
2022-09-07T04:51:52.649Z,5.20
2022-09-07T04:52:52.652Z,5.00
2022-09-07T04:53:52.658Z,4.60
2022-09-07T04:54:52.659Z,5.90
2022-09-07T04:55:52.657Z,6.00
2022-09-07T04:56:52.659Z,6.30
2022-09-07T04:57:52.660Z,4.80
2022-09-07T04:58:52.662Z,4.90
2022-09-07T04:59:52.666Z,5.50
2022-09-07T05:00:52.712Z,5.30
2022-09-07T05:01:52.760Z,5.40
2022-09-07T05:02:52.669Z,4.90
2022-09-07T05:03:52.674Z,5.20
2022-09-07T05:04:52.673Z,4.30
2022-09-07T05:05:52.677Z,5.50
2022-09-07T05:06:52.677Z,5.00
2022-09-07T05:07:52.679Z,5.80
2022-09-07T05:08:52.684Z,4.90
2022-09-07T05:09:52.684Z,5.20
2022-09-07T05:10:52.685Z,5.00
2022-09-07T05:11:52.691Z,4.90
2022-09-07T05:12:52.692Z,5.50
2022-09-07T05:13:52.710Z,6.80
2022-09-07T05:14:53.048Z,6.40
2022-09-07T05:15:52.700Z,5.50
2022-09-07T05:16:52.752Z,5.70
2022-09-07T05:17:52.700Z,5.90
2022-09-07T05:18:52.700Z,5.90
2022-09-07T05:19:52.701Z,5.30
2022-09-07T05:20:52.703Z,5.10
2022-09-07T05:21:52.706Z,5.90
2022-09-07T05:22:52.707Z,5.20
2022-09-07T05:23:52.710Z,5.60
2022-09-07T05:24:52.712Z,4.80
2022-09-07T05:25:52.714Z,5.40
2022-09-07T05:26:52.715Z,5.70
2022-09-07T05:27:52.719Z,6.90
2022-09-07T05:28:52.943Z,5.50
2022-09-07T05:31:52.727Z,4.80
2022-09-07T05:32:52.726Z,5.30
2022-09-07T05:34:53.121Z,5.60
2022-09-07T05:35:52.730Z,4.70
2022-09-07T05:36:52.735Z,5.40
2022-09-07T05:37:52.740Z,5.20
2022-09-07T05:38:52.737Z,5.10
2022-09-07T05:39:52.846Z,5.60
2022-09-07T05:40:52.739Z,5.00
2022-09-07T05:41:52.742Z,5.60
2022-09-07T05:42:52.747Z,5.00
2022-09-07T05:44:52.748Z,6.00
2022-09-07T05:45:52.798Z,5.40
2022-09-07T05:46:52.757Z,5.40
2022-09-07T05:47:52.756Z,5.30
2022-09-07T05:48:52.755Z,5.70
2022-09-07T05:49:55.236Z,5.40
2022-09-07T05:50:52.761Z,5.60
2022-09-07T05:51:52.761Z,6.20
2022-09-07T05:52:52.762Z,5.40
2022-09-07T05:53:52.765Z,6.00
2022-09-07T05:54:56.628Z,6.20
2022-09-07T05:55:52.776Z,6.00
2022-09-07T05:56:52.772Z,5.50
2022-09-07T05:57:52.773Z,5.50
2022-09-07T05:58:52.813Z,5.60
2022-09-07T05:59:52.782Z,5.70
2022-09-07T06:00:52.790Z,5.80
2022-09-07T06:01:52.908Z,6.30
2022-09-07T06:02:52.892Z,6.50
2022-09-07T06:03:52.784Z,5.50
2022-09-07T06:04:52.783Z,5.50
2022-09-07T06:05:52.790Z,6.70
2022-09-07T06:07:19.990Z,6.00
2022-09-07T06:07:52.789Z,5.90
2022-09-07T06:08:52.801Z,5.60
2022-09-07T06:10:52.797Z,5.90
2022-09-07T06:11:52.794Z,6.70
2022-09-07T06:12:52.799Z,6.40
2022-09-07T06:13:52.800Z,6.20
2022-09-07T06:14:53.288Z,6.60
2022-09-07T06:15:52.823Z,5.90
2022-09-07T06:16:52.838Z,7.60
2022-09-07T06:17:52.807Z,6.30
2022-09-07T06:18:52.808Z,6.60
2022-09-07T06:19:52.816Z,6.50
2022-09-07T06:20:52.811Z,6.20
2022-09-07T06:21:52.818Z,6.50
2022-09-07T06:22:52.815Z,6.30
2022-09-07T06:23:52.818Z,6.50
2022-09-07T06:24:52.819Z,6.20
2022-09-07T06:25:52.823Z,6.00
2022-09-07T06:26:52.824Z,6.70
2022-09-07T06:27:52.824Z,7.40
2022-09-07T06:28:57.176Z,6.40
2022-09-07T06:29:52.831Z,6.50
2022-09-07T06:30:52.830Z,6.80
2022-09-07T06:32:52.835Z,7.10
2022-09-07T06:33:52.835Z,6.50
2022-09-07T06:34:52.839Z,6.20
2022-09-07T06:35:52.851Z,8.00
2022-09-07T06:36:52.841Z,7.00
2022-09-07T06:37:52.844Z,6.40
2022-09-07T06:38:52.843Z,7.80
2022-09-07T06:39:52.885Z,8.00
2022-09-07T06:42:00.083Z,7.50
2022-09-07T06:42:52.859Z,7.30
2022-09-07T06:43:52.854Z,7.30
2022-09-07T06:44:52.858Z,7.80
2022-09-07T06:45:53.295Z,9.50
2022-09-07T06:47:08.254Z,10.40
2022-09-07T06:47:52.864Z,11.00
2022-09-07T06:48:52.866Z,12.90
2022-09-07T06:49:52.867Z,12.50
2022-09-07T06:50:52.866Z,12.40
2022-09-07T06:51:52.867Z,12.60
2022-09-07T06:53:53.309Z,13.80
2022-09-07T06:55:52.876Z,14.00
2022-09-07T06:56:52.879Z,15.00
2022-09-07T06:57:52.887Z,14.40
2022-09-07T06:58:52.883Z,14.80
2022-09-07T06:59:52.888Z,16.70
2022-09-07T07:00:52.939Z,17.00
2022-09-07T07:01:52.890Z,17.60
2022-09-07T07:02:52.960Z,18.40
2022-09-07T07:03:52.890Z,18.00
2022-09-07T07:04:52.894Z,20.10
2022-09-07T07:05:52.902Z,18.70
2022-09-07T07:06:52.897Z,19.70
2022-09-07T07:07:52.902Z,19.30
2022-09-07T07:08:52.900Z,20.50
2022-09-07T07:09:52.903Z,20.50
2022-09-07T07:10:52.908Z,20.40
2022-09-07T07:11:52.905Z,19.90
2022-09-07T07:12:52.914Z,20.60
2022-09-07T07:13:52.919Z,20.40
2022-09-07T07:14:52.912Z,21.10
2022-09-07T07:15:52.918Z,22.30
2022-09-07T07:16:52.923Z,22.80
2022-09-07T07:17:58.385Z,23.10
2022-09-07T07:18:52.926Z,23.50
2022-09-07T07:19:53.291Z,24.50
2022-09-07T07:20:52.925Z,23.30
2022-09-07T07:22:23.791Z,23.60
2022-09-07T07:22:52.930Z,23.50
2022-09-07T07:23:52.933Z,24.10
2022-09-07T07:24:52.935Z,24.20
2022-09-07T07:25:52.933Z,25.80
2022-09-07T07:26:52.933Z,23.60
2022-09-07T07:27:52.967Z,23.90
2022-09-07T07:29:00.320Z,24.90
2022-09-07T07:29:52.942Z,25.10
2022-09-07T07:30:52.959Z,25.30
2022-09-07T07:31:52.943Z,24.60
2022-09-07T07:32:53.027Z,24.90
2022-09-07T07:33:53.105Z,25.00
2022-09-07T07:34:52.949Z,24.80
2022-09-07T07:35:52.954Z,26.10
2022-09-07T07:36:52.957Z,25.10
2022-09-07T07:37:53.283Z,24.00
2022-09-07T07:39:00.984Z,25.20
2022-09-07T07:42:52.967Z,25.60
2022-09-07T07:43:52.969Z,26.30
2022-09-07T07:46:53.015Z,25.50
2022-09-07T07:47:52.977Z,25.70
2022-09-07T07:48:52.981Z,26.10
2022-09-07T07:50:30.608Z,25.90
2022-09-07T07:50:52.986Z,24.60
2022-09-07T07:53:41.355Z,22.70
2022-09-07T07:53:53.000Z,22.00
2022-09-07T07:54:52.994Z,21.60
2022-09-07T07:55:52.991Z,20.30
2022-09-07T07:56:52.993Z,20.10
2022-09-07T07:57:53.003Z,19.30
2022-09-07T07:58:53.004Z,20.20
2022-09-07T07:59:53.004Z,19.00
2022-09-07T08:00:55.484Z,16.50
2022-09-07T08:01:53.129Z,19.40
2022-09-07T08:02:53.052Z,18.00
2022-09-07T08:03:53.006Z,19.10
2022-09-07T08:04:53.009Z,18.50
2022-09-07T08:05:53.033Z,17.30
2022-09-07T08:06:53.015Z,16.80
2022-09-07T08:07:53.020Z,15.30
2022-09-07T08:08:53.037Z,15.10
2022-09-07T08:09:53.025Z,15.20
2022-09-07T08:10:53.029Z,14.20
2022-09-07T08:11:53.032Z,13.00
2022-09-07T08:12:53.026Z,11.80
2022-09-07T08:13:53.031Z,11.80
2022-09-07T08:14:53.030Z,11.60
2022-09-07T08:15:53.128Z,9.60
2022-09-07T08:16:53.036Z,6.20
2022-09-07T08:17:53.040Z,4.90
2022-09-07T08:18:53.040Z,4.90
2022-09-07T08:19:53.043Z,4.50
2022-09-07T08:20:53.043Z,4.80
2022-09-07T08:21:53.065Z,4.90
2022-09-07T08:22:53.050Z,4.30
2022-09-07T08:23:53.051Z,4.40
2022-09-07T08:24:53.204Z,4.90
2022-09-07T08:25:53.060Z,5.90
2022-09-07T08:26:53.062Z,4.10
2022-09-07T08:27:53.065Z,5.10
2022-09-07T08:28:53.061Z,4.20
2022-09-07T08:29:53.067Z,4.40
2022-09-07T08:30:53.066Z,5.40
2022-09-07T08:31:53.119Z,4.30
2022-09-07T08:32:53.073Z,4.80
2022-09-07T08:33:53.075Z,4.50
2022-09-07T08:34:53.082Z,4.50
2022-09-07T08:35:53.078Z,5.40
2022-09-07T08:36:53.080Z,5.70
2022-09-07T08:37:53.104Z,4.40
2022-09-07T08:38:53.090Z,4.40
2022-09-07T08:39:53.177Z,6.50
2022-09-07T08:40:53.088Z,4.80
2022-09-07T08:41:53.094Z,5.00
2022-09-07T08:42:53.093Z,4.40
2022-09-07T08:43:53.100Z,5.10
2022-09-07T08:44:53.098Z,4.20
2022-09-07T08:45:53.102Z,5.40
2022-09-07T08:46:53.155Z,4.90
2022-09-07T08:47:53.108Z,5.80
2022-09-07T08:48:53.107Z,4.90
2022-09-07T08:49:53.112Z,4.60
2022-09-07T08:50:53.114Z,5.40
2022-09-07T08:51:53.116Z,4.80
2022-09-07T08:52:53.117Z,5.60
2022-09-07T08:53:53.148Z,5.30
2022-09-07T08:54:53.124Z,6.80
2022-09-07T08:55:53.124Z,5.60
2022-09-07T08:57:53.131Z,4.60
2022-09-07T08:58:53.134Z,7.30
2022-09-07T08:59:53.132Z,4.80
2022-09-07T09:01:30.566Z,5.80
2022-09-07T09:05:53.259Z,4.00
2022-09-07T09:06:53.223Z,3.30
2022-09-07T09:07:53.149Z,3.40
2022-09-07T09:08:53.153Z,2.80
2022-09-07T09:09:53.171Z,2.60
2022-09-07T09:10:53.161Z,2.50
2022-09-07T09:11:53.158Z,2.90
2022-09-07T09:12:53.160Z,3.30
2022-09-07T09:13:53.162Z,2.80
2022-09-07T09:14:53.165Z,3.10
2022-09-07T09:15:53.268Z,3.00
2022-09-07T09:16:53.167Z,2.40
2022-09-07T09:17:53.172Z,2.90
2022-09-07T09:18:53.174Z,2.60
2022-09-07T09:19:53.174Z,2.40
2022-09-07T09:20:53.179Z,2.70
2022-09-07T09:21:53.178Z,5.00
2022-09-07T09:22:53.186Z,3.10
2022-09-07T09:23:53.185Z,2.40
2022-09-07T09:24:53.543Z,2.60
2022-09-07T09:25:53.213Z,4.30
2022-09-07T09:26:53.251Z,2.90
2022-09-07T09:27:53.194Z,4.10
2022-09-07T09:28:53.196Z,3.20
2022-09-07T09:29:53.195Z,3.30
2022-09-07T09:30:53.264Z,2.60
2022-09-07T09:31:53.200Z,2.60
2022-09-07T09:32:53.206Z,2.90
2022-09-07T09:33:53.206Z,3.60
2022-09-07T09:34:53.208Z,2.80
2022-09-07T09:35:53.212Z,2.90
2022-09-07T09:36:53.213Z,3.00
2022-09-07T09:37:53.215Z,2.40
2022-09-07T09:38:53.219Z,2.60
2022-09-07T09:39:55.441Z,2.70
2022-09-07T09:40:53.222Z,2.50
2022-09-07T09:41:53.237Z,3.10
2022-09-07T09:42:53.231Z,3.20
2022-09-07T09:43:53.321Z,3.40
2022-09-07T09:44:53.230Z,2.70
2022-09-07T09:47:53.292Z,3.50
2022-09-07T09:48:53.237Z,3.00
2022-09-07T09:49:53.239Z,3.50
2022-09-07T09:52:53.247Z,3.40
2022-09-07T09:53:53.248Z,4.20
2022-09-07T09:54:53.251Z,3.70
2022-09-07T09:55:53.255Z,4.40
2022-09-07T09:56:53.260Z,2.90
2022-09-07T09:59:57.655Z,2.60
2022-09-07T10:04:53.288Z,3.30
2022-09-07T10:05:53.277Z,3.00
2022-09-07T10:06:53.280Z,3.60
2022-09-07T10:07:53.284Z,2.50
2022-09-07T10:08:53.282Z,3.90
2022-09-07T10:09:53.284Z,3.10
2022-09-07T10:10:53.291Z,3.70
2022-09-07T10:12:08.969Z,2.50
2022-09-07T10:12:53.301Z,2.60
2022-09-07T10:13:53.313Z,3.40
2022-09-07T10:14:53.301Z,3.10
2022-09-07T10:15:53.488Z,2.90
2022-09-07T10:16:53.303Z,3.30
2022-09-07T10:17:53.302Z,4.40
2022-09-07T10:18:53.307Z,3.40
2022-09-07T10:19:53.307Z,3.10
2022-09-07T10:20:53.312Z,3.00
2022-09-07T10:21:53.316Z,3.20
2022-09-07T10:22:53.325Z,2.60
2022-09-07T10:23:53.324Z,3.10
2022-09-07T10:24:53.322Z,3.20
2022-09-07T10:25:53.325Z,2.80
2022-09-07T10:26:53.331Z,3.10
2022-09-07T10:27:53.327Z,3.80
2022-09-07T10:29:09.368Z,5.00
2022-09-07T10:29:53.348Z,3.20
2022-09-07T10:30:53.371Z,2.50
2022-09-07T10:31:53.336Z,2.60
2022-09-07T10:32:53.341Z,2.60
2022-09-07T10:34:53.360Z,2.50
2022-09-07T10:35:53.344Z,2.80
2022-09-07T10:36:53.355Z,2.90
2022-09-07T10:37:53.350Z,2.90
2022-09-07T10:38:53.355Z,2.60
2022-09-07T10:39:56.963Z,2.80
2022-09-07T10:40:53.362Z,3.30
2022-09-07T10:41:53.360Z,2.30
2022-09-07T10:43:23.455Z,2.70
2022-09-07T10:43:53.364Z,2.60
2022-09-07T10:44:53.369Z,2.90
2022-09-07T10:45:53.478Z,3.80
2022-09-07T10:46:57.014Z,3.40
2022-09-07T10:47:53.378Z,3.00
2022-09-07T10:48:53.379Z,2.60
2022-09-07T10:50:53.382Z,3.50
2022-09-07T10:51:53.386Z,2.90
2022-09-07T10:52:53.388Z,3.40
2022-09-07T10:54:53.400Z,3.40
2022-09-07T10:55:53.394Z,3.40
2022-09-07T10:56:53.399Z,3.40
2022-09-07T10:57:53.991Z,3.50
2022-09-07T10:59:08.880Z,3.10
2022-09-07T11:00:09.477Z,3.60
2022-09-07T11:00:53.406Z,3.40
2022-09-07T11:01:53.514Z,3.30
2022-09-07T11:03:53.485Z,3.60
2022-09-07T11:04:53.419Z,3.20
2022-09-07T11:05:53.426Z,3.20
2022-09-07T11:06:53.422Z,3.20
2022-09-07T11:07:53.421Z,3.60
2022-09-07T11:09:53.426Z,4.70
2022-09-07T11:10:53.433Z,3.70
2022-09-07T11:12:01.463Z,3.50
2022-09-07T11:12:53.433Z,3.50
2022-09-07T11:14:11.984Z,3.30
2022-09-07T11:14:53.506Z,3.90
2022-09-07T11:15:53.494Z,4.60
2022-09-07T11:16:53.535Z,3.40
2022-09-07T11:17:53.509Z,5.10
2022-09-07T11:19:35.049Z,3.80
2022-09-07T11:19:53.450Z,3.20
2022-09-07T11:20:53.457Z,3.50
2022-09-07T11:21:56.756Z,2.80
2022-09-07T11:22:53.458Z,2.80
2022-09-07T11:23:53.459Z,3.30
2022-09-07T11:25:53.466Z,3.80
2022-09-07T11:26:53.470Z,3.90
2022-09-07T11:27:53.468Z,3.20
2022-09-07T11:29:53.474Z,3.60
2022-09-07T11:30:57.854Z,3.40
2022-09-07T11:31:53.475Z,5.80
2022-09-07T11:32:53.479Z,4.00
2022-09-07T11:34:53.488Z,4.00
2022-09-07T11:35:53.490Z,3.50
2022-09-07T11:36:53.490Z,4.20
2022-09-07T11:37:53.493Z,3.60
2022-09-07T11:38:53.497Z,4.70
2022-09-07T11:39:53.563Z,3.60
2022-09-07T11:40:53.501Z,2.80
2022-09-07T11:41:53.506Z,3.20
2022-09-07T11:42:53.510Z,3.60
2022-09-07T11:43:53.509Z,3.70
2022-09-07T11:44:53.513Z,5.00
2022-09-07T11:45:53.546Z,4.10
2022-09-07T11:46:53.520Z,3.30
2022-09-07T11:47:53.519Z,3.50
2022-09-07T11:48:53.522Z,3.80
2022-09-07T11:49:57.269Z,3.90
2022-09-07T11:50:53.529Z,3.50
2022-09-07T11:51:54.015Z,4.20
2022-09-07T11:52:53.945Z,4.40
2022-09-07T11:53:53.535Z,4.10
2022-09-07T11:54:53.554Z,5.40
2022-09-07T11:55:53.561Z,4.60
2022-09-07T11:56:53.548Z,4.90
2022-09-07T11:57:55.598Z,4.80
2022-09-07T11:58:53.548Z,4.20
2022-09-07T11:59:53.554Z,3.70
2022-09-07T12:00:53.557Z,4.30
2022-09-07T12:01:53.554Z,4.80
2022-09-07T12:02:59.887Z,4.50
2022-09-07T12:03:53.667Z,5.40
2022-09-07T12:04:56.385Z,4.30
2022-09-07T12:05:53.586Z,4.60
2022-09-07T12:06:53.571Z,4.40
2022-09-07T12:07:53.572Z,4.70
2022-09-07T12:08:53.572Z,4.30
2022-09-07T12:09:53.577Z,6.20
2022-09-07T12:10:53.580Z,4.70
2022-09-07T12:11:53.578Z,5.20
2022-09-07T12:12:53.584Z,4.30
2022-09-07T12:13:53.585Z,5.30
2022-09-07T12:14:53.590Z,5.40
2022-09-07T12:15:53.649Z,5.40
2022-09-07T12:16:53.595Z,4.90
2022-09-07T12:17:53.593Z,6.30
2022-09-07T12:18:53.598Z,5.70
2022-09-07T12:19:53.598Z,4.80
2022-09-07T12:20:53.604Z,4.20
2022-09-07T12:21:53.646Z,5.40
2022-09-07T12:22:53.611Z,4.60
2022-09-07T12:23:53.610Z,11.90
2022-09-07T12:24:53.812Z,5.30
2022-09-07T12:25:53.618Z,6.50
2022-09-07T12:26:53.622Z,5.70
2022-09-07T12:27:53.656Z,4.60
2022-09-07T12:28:53.624Z,5.30
2022-09-07T12:29:53.625Z,4.60
2022-09-07T12:30:53.666Z,6.50
2022-09-07T12:31:58.374Z,5.30
2022-09-07T12:32:54.874Z,6.10
2022-09-07T12:33:53.637Z,5.30
2022-09-07T12:34:53.640Z,4.90
2022-09-07T12:35:53.644Z,4.70
2022-09-07T12:36:53.669Z,6.20
2022-09-07T12:37:53.669Z,4.50
2022-09-07T12:38:53.650Z,5.20
2022-09-07T12:39:53.724Z,6.00
2022-09-07T12:40:53.654Z,5.50
2022-09-07T12:42:54.526Z,5.00
2022-09-07T12:43:53.662Z,4.90
2022-09-07T12:44:53.666Z,5.00
2022-09-07T12:45:53.698Z,4.50
2022-09-07T12:46:53.674Z,3.50
2022-09-07T12:47:53.680Z,4.60
2022-09-07T12:48:53.673Z,4.50
2022-09-07T12:49:53.682Z,3.70
2022-09-07T12:50:53.680Z,4.10
2022-09-07T12:52:05.209Z,4.20
2022-09-07T12:52:53.688Z,3.90
2022-09-07T12:53:57.551Z,3.50
2022-09-07T12:55:16.406Z,4.80
2022-09-07T12:57:53.701Z,3.80
2022-09-07T12:58:53.745Z,2.70
2022-09-07T12:59:53.709Z,3.30
2022-09-07T13:00:53.706Z,4.10
2022-09-07T13:01:53.789Z,4.10
2022-09-07T13:02:53.711Z,3.80
2022-09-07T13:03:53.713Z,2.50
2022-09-07T13:04:53.722Z,2.60
2022-09-07T13:05:53.723Z,4.00
2022-09-07T13:07:09.171Z,3.30
2022-09-07T13:07:59.364Z,4.10
2022-09-07T13:08:53.730Z,3.10
2022-09-07T13:09:53.751Z,3.60
2022-09-07T13:10:53.733Z,2.80
2022-09-07T13:11:53.734Z,3.30
2022-09-07T13:12:54.230Z,3.80
2022-09-07T13:14:02.938Z,3.90
2022-09-07T13:14:53.746Z,3.60
2022-09-07T13:15:53.772Z,2.70
2022-09-07T13:17:53.752Z,4.00
2022-09-07T13:18:53.799Z,3.80
2022-09-07T13:19:53.759Z,2.70
2022-09-07T13:20:53.769Z,3.00
2022-09-07T13:21:54.005Z,3.10
2022-09-07T13:22:53.771Z,3.10
2022-09-07T13:23:53.772Z,3.10
2022-09-07T13:24:54.021Z,2.70
2022-09-07T13:25:53.799Z,2.10
2022-09-07T13:26:53.782Z,3.30
2022-09-07T13:27:53.780Z,2.90
2022-09-07T13:28:54.818Z,3.50
2022-09-07T13:29:55.074Z,3.20
2022-09-07T13:30:53.859Z,2.60
2022-09-07T13:31:54.547Z,3.50
2022-09-07T13:33:09.340Z,2.70
2022-09-07T13:33:53.809Z,2.70
2022-09-07T13:34:53.800Z,3.00
2022-09-07T13:35:53.804Z,1.90
2022-09-07T13:36:53.804Z,2.20
2022-09-07T13:37:53.810Z,2.60
2022-09-07T13:38:53.845Z,3.00
2022-09-07T13:39:53.887Z,2.60
2022-09-07T13:40:53.823Z,3.10
2022-09-07T13:41:53.841Z,2.40
2022-09-07T13:42:53.825Z,2.70
2022-09-07T13:43:53.832Z,3.00
2022-09-07T13:44:53.830Z,2.30
2022-09-07T13:45:53.921Z,2.10
2022-09-07T13:46:53.836Z,2.40
2022-09-07T13:47:53.836Z,4.10
2022-09-07T13:48:53.841Z,2.30
2022-09-07T13:49:56.019Z,2.90
2022-09-07T13:50:53.845Z,3.30
2022-09-07T13:51:53.850Z,3.50
2022-09-07T13:52:53.853Z,2.70
2022-09-07T13:53:53.858Z,2.70
2022-09-07T13:54:53.858Z,3.00
2022-09-07T13:55:53.863Z,2.50
2022-09-07T13:56:53.865Z,3.20
2022-09-07T13:57:53.974Z,3.50